sensor_id;sensor_type;location;lat;lon;timestamp;pressure;altitude;pressure_sealevel;temperature;humidity
76586;BME280;65251;51.022;13.736;2022-12-07T00:00:23;99108.69;;;3.84;77.04
76586;BME280;65251;51.022;13.736;2022-12-07T00:00:55;99098.97;;;3.84;76.45
76586;BME280;65251;51.022;13.736;2022-12-07T00:01:36;99096.84;;;3.88;76.71
76586;BME280;65251;51.022;13.736;2022-12-07T00:02:08;99103.09;;;3.87;76.00
76586;BME280;65251;51.022;13.736;2022-12-07T00:02:40;99103.09;;;3.87;76.24
76586;BME280;65251;51.022;13.736;2022-12-07T00:03:11;99094.38;;;3.86;76.63
76586;BME280;65251;51.022;13.736;2022-12-07T00:03:43;99100.47;;;3.87;76.45
76586;BME280;65251;51.022;13.736;2022-12-07T00:04:16;99099.47;;;3.88;76.34
76586;BME280;65251;51.022;13.736;2022-12-07T00:04:49;99098.69;;;3.79;76.46
76586;BME280;65251;51.022;13.736;2022-12-07T00:05:19;99098.84;;;3.77;76.95
76586;BME280;65251;51.022;13.736;2022-12-07T00:05:50;99102.13;;;3.79;76.98
76586;BME280;65251;51.022;13.736;2022-12-07T00:06:21;99099.66;;;3.70;77.86
76586;BME280;65251;51.022;13.736;2022-12-07T00:06:52;99095.22;;;3.70;77.80
76586;BME280;65251;51.022;13.736;2022-12-07T00:07:23;99101.63;;;3.76;76.72
76586;BME280;65251;51.022;13.736;2022-12-07T00:07:54;99096.38;;;3.76;76.64
76586;BME280;65251;51.022;13.736;2022-12-07T00:08:26;99096.38;;;3.76;76.79
76586;BME280;65251;51.022;13.736;2022-12-07T00:08:57;99095.88;;;3.72;77.31
76586;BME280;65251;51.022;13.736;2022-12-07T00:09:27;99097.53;;;3.73;77.58
76586;BME280;65251;51.022;13.736;2022-12-07T00:09:59;99103.78;;;3.72;77.22
76586;BME280;65251;51.022;13.736;2022-12-07T00:10:30;99087.97;;;3.72;77.17
76586;BME280;65251;51.022;13.736;2022-12-07T00:11:06;99100.00;;;3.75;77.18
76586;BME280;65251;51.022;13.736;2022-12-07T00:11:39;99092.56;;;3.70;77.42
76586;BME280;65251;51.022;13.736;2022-12-07T00:12:10;99098.16;;;3.67;77.76
76586;BME280;65251;51.022;13.736;2022-12-07T00:12:41;99092.06;;;3.67;77.30
76586;BME280;65251;51.022;13.736;2022-12-07T00:13:12;99095.53;;;3.67;76.88
76586;BME280;65251;51.022;13.736;2022-12-07T00:13:44;99094.38;;;3.70;76.65
76586;BME280;65251;51.022;13.736;2022-12-07T00:14:16;99084.84;;;3.69;77.23
76586;BME280;65251;51.022;13.736;2022-12-07T00:14:48;99087.31;;;3.70;77.08
76586;BME280;65251;51.022;13.736;2022-12-07T00:15:19;99097.50;;;3.65;77.18
76586;BME280;65251;51.022;13.736;2022-12-07T00:15:50;99094.06;;;3.65;77.33
76586;BME280;65251;51.022;13.736;2022-12-07T00:16:25;99093.06;;;3.66;77.60
76586;BME280;65251;51.022;13.736;2022-12-07T00:16:56;99088.44;;;3.68;77.57
76586;BME280;65251;51.022;13.736;2022-12-07T00:17:27;99096.19;;;3.69;77.52
76586;BME280;65251;51.022;13.736;2022-12-07T00:17:58;99084.50;;;3.72;76.83
76586;BME280;65251;51.022;13.736;2022-12-07T00:18:29;99087.81;;;3.74;76.74
76586;BME280;65251;51.022;13.736;2022-12-07T00:19:02;99090.28;;;3.75;76.91
76586;BME280;65251;51.022;13.736;2022-12-07T00:19:34;99088.63;;;3.74;77.46
76586;BME280;65251;51.022;13.736;2022-12-07T00:20:06;99081.84;;;3.80;77.12
76586;BME280;65251;51.022;13.736;2022-12-07T00:20:37;99085.16;;;3.82;77.22
76586;BME280;65251;51.022;13.736;2022-12-07T00:21:11;99092.88;;;3.84;77.23
76586;BME280;65251;51.022;13.736;2022-12-07T00:21:43;99089.91;;;3.87;76.81
76586;BME280;65251;51.022;13.736;2022-12-07T00:22:13;99091.41;;;3.89;76.50
76586;BME280;65251;51.022;13.736;2022-12-07T00:22:45;99077.25;;;3.90;76.29
76586;BME280;65251;51.022;13.736;2022-12-07T00:23:16;99084.00;;;3.93;76.64
76586;BME280;65251;51.022;13.736;2022-12-07T00:23:48;99085.16;;;3.90;76.00
76586;BME280;65251;51.022;13.736;2022-12-07T00:24:20;99084.00;;;3.93;76.29
76586;BME280;65251;51.022;13.736;2022-12-07T00:24:51;99077.06;;;3.92;76.39
76586;BME280;65251;51.022;13.736;2022-12-07T00:25:22;99078.56;;;3.94;76.00
76586;BME280;65251;51.022;13.736;2022-12-07T00:25:53;99088.28;;;3.94;76.16
76586;BME280;65251;51.022;13.736;2022-12-07T00:26:27;99077.06;;;3.92;75.71
76586;BME280;65251;51.022;13.736;2022-12-07T00:26:59;99079.38;;;3.95;76.14
76586;BME280;65251;51.022;13.736;2022-12-07T00:27:31;99077.75;;;3.94;75.75
76586;BME280;65251;51.022;13.736;2022-12-07T00:28:01;99082.34;;;3.92;75.56
76586;BME280;65251;51.022;13.736;2022-12-07T00:28:33;99082.50;;;3.90;76.23
76586;BME280;65251;51.022;13.736;2022-12-07T00:29:06;99080.69;;;3.91;76.66
76586;BME280;65251;51.022;13.736;2022-12-07T00:29:38;99084.97;;;3.92;76.44
76586;BME280;65251;51.022;13.736;2022-12-07T00:30:09;99081.19;;;3.94;75.79
76586;BME280;65251;51.022;13.736;2022-12-07T00:30:40;99078.56;;;3.94;75.86
76586;BME280;65251;51.022;13.736;2022-12-07T00:31:13;99080.88;;;3.97;75.94
76586;BME280;65251;51.022;13.736;2022-12-07T00:31:44;99079.88;;;3.98;75.42
76586;BME280;65251;51.022;13.736;2022-12-07T00:32:15;99073.41;;;4.01;75.92
76586;BME280;65251;51.022;13.736;2022-12-07T00:32:47;99075.22;;;4.00;75.19
76586;BME280;65251;51.022;13.736;2022-12-07T00:33:17;99076.06;;;4.01;75.30
76586;BME280;65251;51.022;13.736;2022-12-07T00:33:48;99078.06;;;3.99;75.67
76586;BME280;65251;51.022;13.736;2022-12-07T00:34:21;99073.94;;;3.96;75.46
76586;BME280;65251;51.022;13.736;2022-12-07T00:34:52;99081.69;;;3.98;75.87
76586;BME280;65251;51.022;13.736;2022-12-07T00:35:23;99073.78;;;3.98;75.80
76586;BME280;65251;51.022;13.736;2022-12-07T00:35:55;99077.25;;;3.98;75.47
76586;BME280;65251;51.022;13.736;2022-12-07T00:36:26;99077.41;;;3.97;75.64
76586;BME280;65251;51.022;13.736;2022-12-07T00:36:57;99078.06;;;3.99;75.38
76586;BME280;65251;51.022;13.736;2022-12-07T00:37:29;99069.50;;;3.97;75.81
76586;BME280;65251;51.022;13.736;2022-12-07T00:37:59;99073.94;;;3.96;75.53
76586;BME280;65251;51.022;13.736;2022-12-07T00:38:32;99077.56;;;3.95;75.42
76586;BME280;65251;51.022;13.736;2022-12-07T00:39:04;99078.72;;;3.93;75.69
76586;BME280;65251;51.022;13.736;2022-12-07T00:39:35;99068.19;;;3.93;75.62
76586;BME280;65251;51.022;13.736;2022-12-07T00:40:07;99074.28;;;3.93;75.46
76586;BME280;65251;51.022;13.736;2022-12-07T00:40:38;99065.88;;;3.90;75.40
76586;BME280;65251;51.022;13.736;2022-12-07T00:41:11;99069.34;;;3.90;75.49
76586;BME280;65251;51.022;13.736;2022-12-07T00:41:43;99073.78;;;3.90;75.39
76586;BME280;65251;51.022;13.736;2022-12-07T00:42:15;99074.59;;;3.90;76.05
76586;BME280;65251;51.022;13.736;2022-12-07T00:42:46;99066.88;;;3.89;76.09
76586;BME280;65251;51.022;13.736;2022-12-07T00:43:17;99067.34;;;3.92;75.53
76586;BME280;65251;51.022;13.736;2022-12-07T00:43:49;99066.69;;;3.90;75.09
76586;BME280;65251;51.022;13.736;2022-12-07T00:44:20;99073.13;;;3.88;75.62
76586;BME280;65251;51.022;13.736;2022-12-07T00:44:52;99068.69;;;3.88;75.62
76586;BME280;65251;51.022;13.736;2022-12-07T00:45:22;99067.84;;;3.88;75.82
76586;BME280;65251;51.022;13.736;2022-12-07T00:45:54;99067.84;;;3.88;76.16
76586;BME280;65251;51.022;13.736;2022-12-07T00:46:26;99073.13;;;3.88;75.78
76586;BME280;65251;51.022;13.736;2022-12-07T00:46:57;99068.03;;;3.86;75.82
76586;BME280;65251;51.022;13.736;2022-12-07T00:47:28;99069.50;;;3.89;75.74
76586;BME280;65251;51.022;13.736;2022-12-07T00:47:59;99068.84;;;3.87;75.86
76586;BME280;65251;51.022;13.736;2022-12-07T00:48:30;99065.22;;;3.88;75.60
76586;BME280;65251;51.022;13.736;2022-12-07T00:49:01;99066.69;;;3.82;76.40
76586;BME280;65251;51.022;13.736;2022-12-07T00:49:33;99064.22;;;3.80;76.48
76586;BME280;65251;51.022;13.736;2022-12-07T00:50:04;99066.38;;;3.85;76.25
76586;BME280;65251;51.022;13.736;2022-12-07T00:50:35;99070.66;;;3.86;75.86
76586;BME280;65251;51.022;13.736;2022-12-07T00:51:09;99070.50;;;3.88;76.29
76586;BME280;65251;51.022;13.736;2022-12-07T00:51:41;99067.34;;;3.84;76.03
76586;BME280;65251;51.022;13.736;2022-12-07T00:52:11;99066.03;;;3.88;76.07
76586;BME280;65251;51.022;13.736;2022-12-07T00:52:43;99062.91;;;3.85;76.02
76586;BME280;65251;51.022;13.736;2022-12-07T00:53:15;99063.56;;;3.87;76.11
76586;BME280;65251;51.022;13.736;2022-12-07T00:53:46;99066.03;;;3.88;76.15
76586;BME280;65251;51.022;13.736;2022-12-07T00:54:18;99065.06;;;3.89;75.69
76586;BME280;65251;51.022;13.736;2022-12-07T00:54:49;99064.88;;;3.91;75.85
76586;BME280;65251;51.022;13.736;2022-12-07T00:55:19;99062.09;;;3.92;75.92
76586;BME280;65251;51.022;13.736;2022-12-07T00:55:51;99060.28;;;3.93;75.75
76586;BME280;65251;51.022;13.736;2022-12-07T00:56:25;99066.69;;;3.98;75.65
76586;BME280;65251;51.022;13.736;2022-12-07T00:56:57;99061.75;;;3.95;76.00
76586;BME280;65251;51.022;13.736;2022-12-07T00:57:30;99057.31;;;3.96;75.90
76586;BME280;65251;51.022;13.736;2022-12-07T00:58:01;99063.06;;;3.91;75.74
76586;BME280;65251;51.022;13.736;2022-12-07T00:58:33;99060.44;;;3.91;75.75
76586;BME280;65251;51.022;13.736;2022-12-07T00:59:05;99067.19;;;3.94;76.20
76586;BME280;65251;51.022;13.736;2022-12-07T00:59:37;99057.31;;;3.96;76.44
76586;BME280;65251;51.022;13.736;2022-12-07T01:00:08;99060.59;;;3.98;76.46
76586;BME280;65251;51.022;13.736;2022-12-07T01:00:41;99055.34;;;3.98;76.25
76586;BME280;65251;51.022;13.736;2022-12-07T01:01:13;99063.69;;;4.01;75.97
76586;BME280;65251;51.022;13.736;2022-12-07T01:01:44;99056.16;;;3.98;75.79
76586;BME280;65251;51.022;13.736;2022-12-07T01:02:15;99060.25;;;4.01;76.04
76586;BME280;65251;51.022;13.736;2022-12-07T01:02:49;99058.59;;;4.00;75.96
76586;BME280;65251;51.022;13.736;2022-12-07T01:03:20;99058.78;;;3.98;75.96
76586;BME280;65251;51.022;13.736;2022-12-07T01:03:51;99054.16;;;4.00;75.89
76586;BME280;65251;51.022;13.736;2022-12-07T01:04:23;99052.53;;;3.99;75.68
76586;BME280;65251;51.022;13.736;2022-12-07T01:04:54;99052.69;;;3.98;75.77
76586;BME280;65251;51.022;13.736;2022-12-07T01:05:25;99059.63;;;3.99;75.97
76586;BME280;65251;51.022;13.736;2022-12-07T01:05:57;99058.97;;;3.97;75.87
76586;BME280;65251;51.022;13.736;2022-12-07T01:06:28;99053.03;;;3.95;76.01
76586;BME280;65251;51.022;13.736;2022-12-07T01:06:59;99056.81;;;3.92;75.86
76586;BME280;65251;51.022;13.736;2022-12-07T01:07:31;99064.22;;;3.89;76.09
76586;BME280;65251;51.022;13.736;2022-12-07T01:08:03;99056.66;;;3.86;75.55
76586;BME280;65251;51.022;13.736;2022-12-07T01:08:34;99055.84;;;3.85;75.97
76586;BME280;65251;51.022;13.736;2022-12-07T01:09:04;99062.75;;;3.86;76.37
76586;BME280;65251;51.022;13.736;2022-12-07T01:09:36;99057.47;;;3.86;75.99
76586;BME280;65251;51.022;13.736;2022-12-07T01:10:07;99057.47;;;3.86;76.27
76586;BME280;65251;51.022;13.736;2022-12-07T01:10:38;99055.50;;;3.88;76.16
76586;BME280;65251;51.022;13.736;2022-12-07T01:11:13;99057.97;;;3.90;76.03
76586;BME280;65251;51.022;13.736;2022-12-07T01:11:44;99057.63;;;3.93;75.84
76586;BME280;65251;51.022;13.736;2022-12-07T01:12:16;99059.28;;;3.94;76.28
76586;BME280;65251;51.022;13.736;2022-12-07T01:12:48;99059.28;;;3.94;75.56
76586;BME280;65251;51.022;13.736;2022-12-07T01:13:19;99063.56;;;3.95;75.74
76586;BME280;65251;51.022;13.736;2022-12-07T01:13:51;99059.94;;;3.88;75.64
76586;BME280;65251;51.022;13.736;2022-12-07T01:14:23;99066.03;;;3.88;76.04
76586;BME280;65251;51.022;13.736;2022-12-07T01:14:53;99065.25;;;3.79;76.17
76586;BME280;65251;51.022;13.736;2022-12-07T01:15:25;99060.44;;;3.83;76.89
76586;BME280;65251;51.022;13.736;2022-12-07T01:15:58;99065.53;;;3.85;76.79
76586;BME280;65251;51.022;13.736;2022-12-07T01:16:31;99071.47;;;3.87;77.07
76586;BME280;65251;51.022;13.736;2022-12-07T01:17:03;99061.75;;;3.87;77.33
76586;BME280;65251;51.022;13.736;2022-12-07T01:17:34;99058.47;;;3.85;77.53
76586;BME280;65251;51.022;13.736;2022-12-07T01:18:05;99054.84;;;3.86;77.14
76586;BME280;65251;51.022;13.736;2022-12-07T01:18:36;99052.38;;;3.85;76.60
76586;BME280;65251;51.022;13.736;2022-12-07T01:19:08;99055.34;;;3.90;76.47
76586;BME280;65251;51.022;13.736;2022-12-07T01:19:39;99055.00;;;3.93;76.59
76586;BME280;65251;51.022;13.736;2022-12-07T01:20:10;99060.94;;;3.95;76.38
76586;BME280;65251;51.022;13.736;2022-12-07T01:20:42;99058.97;;;3.97;76.22
76586;BME280;65251;51.022;13.736;2022-12-07T01:21:15;99057.16;;;3.97;75.97
76586;BME280;65251;51.022;13.736;2022-12-07T01:21:48;99056.31;;;3.97;76.36
76586;BME280;65251;51.022;13.736;2022-12-07T01:22:18;99060.44;;;3.99;75.91
76586;BME280;65251;51.022;13.736;2022-12-07T01:22:49;99057.81;;;3.99;75.89
76586;BME280;65251;51.022;13.736;2022-12-07T01:23:21;99050.69;;;4.00;75.97
76586;BME280;65251;51.022;13.736;2022-12-07T01:23:52;99057.81;;;3.99;76.09
76586;BME280;65251;51.022;13.736;2022-12-07T01:24:23;99057.97;;;3.98;76.66
76586;BME280;65251;51.022;13.736;2022-12-07T01:24:54;99058.44;;;4.01;76.41
76586;BME280;65251;51.022;13.736;2022-12-07T01:25:25;99053.69;;;3.97;75.91
76586;BME280;65251;51.022;13.736;2022-12-07T01:25:57;99056.16;;;3.98;76.36
76586;BME280;65251;51.022;13.736;2022-12-07T01:26:29;99050.69;;;4.00;76.24
76586;BME280;65251;51.022;13.736;2022-12-07T01:26:59;99049.91;;;3.99;76.14
76586;BME280;65251;51.022;13.736;2022-12-07T01:27:30;99054.97;;;4.01;75.97
76586;BME280;65251;51.022;13.736;2022-12-07T01:28:03;99053.16;;;4.01;75.31
76586;BME280;65251;51.022;13.736;2022-12-07T01:28:34;99059.09;;;4.03;75.46
76586;BME280;65251;51.022;13.736;2022-12-07T01:29:05;99059.75;;;4.05;75.89
76586;BME280;65251;51.022;13.736;2022-12-07T01:29:37;99055.94;;;4.08;75.67
76586;BME280;65251;51.022;13.736;2022-12-07T01:30:11;99055.94;;;4.08;75.55
76586;BME280;65251;51.022;13.736;2022-12-07T01:30:42;99056.28;;;4.13;75.96
76586;BME280;65251;51.022;13.736;2022-12-07T01:31:15;99055.94;;;4.08;75.63
76586;BME280;65251;51.022;13.736;2022-12-07T01:31:48;99054.63;;;4.12;75.13
76586;BME280;65251;51.022;13.736;2022-12-07T01:32:19;99054.78;;;4.10;75.42
76586;BME280;65251;51.022;13.736;2022-12-07T01:32:50;99056.28;;;4.13;75.56
76586;BME280;65251;51.022;13.736;2022-12-07T01:33:22;99055.28;;;4.14;75.22
76586;BME280;65251;51.022;13.736;2022-12-07T01:33:56;99051.00;;;4.13;75.37
76586;BME280;65251;51.022;13.736;2022-12-07T01:34:27;99054.47;;;4.13;75.10
76586;BME280;65251;51.022;13.736;2022-12-07T01:34:59;99049.19;;;4.13;74.99
76586;BME280;65251;51.022;13.736;2022-12-07T01:35:33;99048.03;;;4.16;74.97
76586;BME280;65251;51.022;13.736;2022-12-07T01:36:05;99056.94;;;4.15;75.58
76586;BME280;65251;51.022;13.736;2022-12-07T01:36:37;99057.25;;;4.12;75.63
76586;BME280;65251;51.022;13.736;2022-12-07T01:37:08;99055.63;;;4.11;75.39
76586;BME280;65251;51.022;13.736;2022-12-07T01:37:40;99049.84;;;4.07;75.87
76586;BME280;65251;51.022;13.736;2022-12-07T01:38:10;99050.69;;;4.08;75.72
76586;BME280;65251;51.022;13.736;2022-12-07T01:38:42;99052.16;;;4.10;75.62
76586;BME280;65251;51.022;13.736;2022-12-07T01:39:14;99051.50;;;4.08;75.37
76586;BME280;65251;51.022;13.736;2022-12-07T01:39:48;99058.25;;;4.11;75.27
76586;BME280;65251;51.022;13.736;2022-12-07T01:40:18;99053.81;;;4.11;75.51
76586;BME280;65251;51.022;13.736;2022-12-07T01:40:54;99054.63;;;4.04;75.77
76586;BME280;65251;51.022;13.736;2022-12-07T01:41:26;99052.53;;;3.99;75.98
76586;BME280;65251;51.022;13.736;2022-12-07T01:41:57;99051.72;;;3.99;75.68
76586;BME280;65251;51.022;13.736;2022-12-07T01:42:29;99055.97;;;4.00;75.77
76586;BME280;65251;51.022;13.736;2022-12-07T01:43:00;99049.41;;;3.96;75.70
76586;BME280;65251;51.022;13.736;2022-12-07T01:43:33;99052.88;;;3.96;76.11
76586;BME280;65251;51.022;13.736;2022-12-07T01:44:15;99049.72;;;3.93;76.25
76586;BME280;65251;51.022;13.736;2022-12-07T01:45:56;99047.75;;;3.87;76.34
76586;BME280;65251;51.022;13.736;2022-12-07T01:46:27;99052.53;;;3.83;76.94
76586;BME280;65251;51.022;13.736;2022-12-07T01:47:00;99050.72;;;3.84;76.80
76586;BME280;65251;51.022;13.736;2022-12-07T01:47:31;99042.81;;;3.84;77.05
76586;BME280;65251;51.022;13.736;2022-12-07T01:48:05;99047.59;;;3.80;76.47
76586;BME280;65251;51.022;13.736;2022-12-07T01:48:41;99051.25;;;3.71;76.64
76586;BME280;65251;51.022;13.736;2022-12-07T01:49:28;99049.75;;;3.68;77.06
76586;BME280;65251;51.022;13.736;2022-12-07T01:50:01;99045.31;;;3.61;77.19
76586;BME280;65251;51.022;13.736;2022-12-07T01:50:33;99055.38;;;3.57;77.62
76586;BME280;65251;51.022;13.736;2022-12-07T01:51:11;99056.22;;;3.58;77.27
76586;BME280;65251;51.022;13.736;2022-12-07T01:51:43;99045.50;;;3.59;77.28
76586;BME280;65251;51.022;13.736;2022-12-07T01:52:20;99053.72;;;3.64;77.37
76586;BME280;65251;51.022;13.736;2022-12-07T01:52:57;99047.63;;;3.56;77.22
76586;BME280;65251;51.022;13.736;2022-12-07T01:53:33;99040.56;;;3.56;77.25
76586;BME280;65251;51.022;13.736;2022-12-07T01:54:06;99049.78;;;3.52;77.85
76586;BME280;65251;51.022;13.736;2022-12-07T01:54:38;99046.16;;;3.53;77.74
76586;BME280;65251;51.022;13.736;2022-12-07T01:55:12;99040.88;;;3.53;77.93
76586;BME280;65251;51.022;13.736;2022-12-07T01:55:47;99049.28;;;3.57;77.65
76586;BME280;65251;51.022;13.736;2022-12-07T01:56:25;99050.28;;;3.56;77.66
76586;BME280;65251;51.022;13.736;2022-12-07T01:56:58;99047.63;;;3.56;77.53
76586;BME280;65251;51.022;13.736;2022-12-07T01:57:34;99045.66;;;3.58;77.39
76586;BME280;65251;51.022;13.736;2022-12-07T01:58:06;99056.84;;;3.60;77.14
76586;BME280;65251;51.022;13.736;2022-12-07T01:58:38;99055.03;;;3.60;76.88
76586;BME280;65251;51.022;13.736;2022-12-07T01:59:10;99046.97;;;3.62;77.10
76586;BME280;65251;51.022;13.736;2022-12-07T01:59:42;99048.78;;;3.61;77.03
76586;BME280;65251;51.022;13.736;2022-12-07T02:00:15;99056.03;;;3.59;77.32
76586;BME280;65251;51.022;13.736;2022-12-07T02:00:47;99057.34;;;3.63;77.27
76586;BME280;65251;51.022;13.736;2022-12-07T02:01:17;99057.03;;;3.58;77.49
76586;BME280;65251;51.022;13.736;2022-12-07T02:01:48;99046.97;;;3.54;77.59
76586;BME280;65251;51.022;13.736;2022-12-07T02:02:25;99062.13;;;3.52;77.74
76586;BME280;65251;51.022;13.736;2022-12-07T02:03:03;99053.38;;;3.43;77.93
76586;BME280;65251;51.022;13.736;2022-12-07T02:03:39;99056.03;;;3.51;77.95
76586;BME280;65251;51.022;13.736;2022-12-07T02:04:12;99052.75;;;3.49;77.82
76586;BME280;65251;51.022;13.736;2022-12-07T02:04:43;99063.28;;;3.49;77.80
76586;BME280;65251;51.022;13.736;2022-12-07T02:05:16;99056.34;;;3.48;78.09
76586;BME280;65251;51.022;13.736;2022-12-07T02:05:49;99057.69;;;3.52;78.22
76586;BME280;65251;51.022;13.736;2022-12-07T02:06:24;99051.91;;;3.49;78.04
76586;BME280;65251;51.022;13.736;2022-12-07T02:06:57;99053.22;;;3.53;77.61
76586;BME280;65251;51.022;13.736;2022-12-07T02:07:29;99060.16;;;3.54;77.64
76586;BME280;65251;51.022;13.736;2022-12-07T02:08:03;99060.81;;;3.56;77.65
76586;BME280;65251;51.022;13.736;2022-12-07T02:08:35;99053.91;;;3.55;77.99
76586;BME280;65251;51.022;13.736;2022-12-07T02:09:06;99057.19;;;3.57;78.58
76586;BME280;65251;51.022;13.736;2022-12-07T02:09:36;99052.75;;;3.57;77.99
76586;BME280;65251;51.022;13.736;2022-12-07T02:10:13;99056.03;;;3.51;77.98
76586;BME280;65251;51.022;13.736;2022-12-07T02:10:44;99053.38;;;3.43;78.44
76586;BME280;65251;51.022;13.736;2022-12-07T02:11:16;99053.41;;;3.35;78.63
76586;BME280;65251;51.022;13.736;2022-12-07T02:11:47;99049.94;;;3.34;78.50
76586;BME280;65251;51.022;13.736;2022-12-07T02:12:20;99049.28;;;3.32;78.54
76586;BME280;65251;51.022;13.736;2022-12-07T02:12:56;99046.31;;;3.27;78.67
76586;BME280;65251;51.022;13.736;2022-12-07T02:13:32;99045.66;;;3.17;79.23
76586;BME280;65251;51.022;13.736;2022-12-07T02:14:05;99048.28;;;3.17;79.56
76586;BME280;65251;51.022;13.736;2022-12-07T02:14:37;99047.63;;;3.15;79.57
76586;BME280;65251;51.022;13.736;2022-12-07T02:15:08;99045.50;;;3.19;79.51
76586;BME280;65251;51.022;13.736;2022-12-07T02:16:03;99049.44;;;3.23;79.30
76586;BME280;65251;51.022;13.736;2022-12-07T02:16:47;99051.91;;;3.24;78.46
76586;BME280;65251;51.022;13.736;2022-12-07T02:17:31;99046.13;;;3.21;78.61
76586;BME280;65251;51.022;13.736;2022-12-07T02:18:12;99049.44;;;3.23;78.25
76586;BME280;65251;51.022;13.736;2022-12-07T02:18:59;99048.28;;;3.25;78.39
76586;BME280;65251;51.022;13.736;2022-12-07T02:20:13;99041.03;;;3.27;78.17
76586;BME280;65251;51.022;13.736;2022-12-07T02:20:57;99046.63;;;3.24;77.99
76586;BME280;65251;51.022;13.736;2022-12-07T02:21:38;99042.50;;;3.22;78.42
76586;BME280;65251;51.022;13.736;2022-12-07T02:23:38;99048.75;;;3.21;77.89
76586;BME280;65251;51.022;13.736;2022-12-07T02:25:22;99045.81;;;3.07;78.39
76586;BME280;65251;51.022;13.736;2022-12-07T02:27:28;99045.31;;;2.96;78.89
76586;BME280;65251;51.022;13.736;2022-12-07T02:28:10;99042.00;;;2.94;78.99
76586;BME280;65251;51.022;13.736;2022-12-07T02:29:11;99043.66;;;2.95;78.76
76586;BME280;65251;51.022;13.736;2022-12-07T02:29:50;99047.25;;;2.94;79.09
76586;BME280;65251;51.022;13.736;2022-12-07T02:30:31;99048.41;;;2.91;79.15
76586;BME280;65251;51.022;13.736;2022-12-07T02:31:12;99050.06;;;2.92;78.98
76586;BME280;65251;51.022;13.736;2022-12-07T02:31:55;99038.88;;;2.90;79.31
76586;BME280;65251;51.022;13.736;2022-12-07T02:32:40;99049.03;;;2.85;79.49
76586;BME280;65251;51.022;13.736;2022-12-07T02:33:18;99040.31;;;2.85;79.45
76586;BME280;65251;51.022;13.736;2022-12-07T02:33:57;99053.31;;;2.86;79.51
76586;BME280;65251;51.022;13.736;2022-12-07T02:34:42;99044.59;;;2.78;79.95
76586;BME280;65251;51.022;13.736;2022-12-07T02:35:20;99045.09;;;2.81;79.78
76586;BME280;65251;51.022;13.736;2022-12-07T02:35:59;99047.06;;;2.87;80.02
76586;BME280;65251;51.022;13.736;2022-12-07T02:36:41;99047.91;;;2.88;79.58
76586;BME280;65251;51.022;13.736;2022-12-07T02:37:23;99036.56;;;2.87;79.68
76586;BME280;65251;51.022;13.736;2022-12-07T02:38:03;99038.00;;;2.82;79.42
76586;BME280;65251;51.022;13.736;2022-12-07T02:38:47;99045.94;;;2.90;79.35
76586;BME280;65251;51.022;13.736;2022-12-07T02:39:28;99038.84;;;2.82;79.38
76586;BME280;65251;51.022;13.736;2022-12-07T02:40:08;99039.19;;;2.79;79.55
76586;BME280;65251;51.022;13.736;2022-12-07T02:40:46;99041.00;;;2.79;79.66
76586;BME280;65251;51.022;13.736;2022-12-07T02:41:23;99035.88;;;2.77;79.98
76586;BME280;65251;51.022;13.736;2022-12-07T02:42:00;99038.16;;;2.80;79.77
76586;BME280;65251;51.022;13.736;2022-12-07T02:42:39;99039.66;;;2.83;79.84
76586;BME280;65251;51.022;13.736;2022-12-07T02:43:16;99047.22;;;2.86;79.43
76586;BME280;65251;51.022;13.736;2022-12-07T02:43:53;99033.91;;;2.87;79.49
76586;BME280;65251;51.022;13.736;2022-12-07T02:44:28;99032.94;;;2.88;79.39
76586;BME280;65251;51.022;13.736;2022-12-07T02:45:01;99036.03;;;2.84;79.49
76586;BME280;65251;51.022;13.736;2022-12-07T02:45:35;99034.41;;;2.83;79.55
76586;BME280;65251;51.022;13.736;2022-12-07T02:46:11;99032.44;;;2.76;80.29
76586;BME280;65251;51.022;13.736;2022-12-07T02:46:50;99030.13;;;2.82;80.24
76586;BME280;65251;51.022;13.736;2022-12-07T02:47:24;99026.34;;;2.84;79.86
76586;BME280;65251;51.022;13.736;2022-12-07T02:48:00;99029.81;;;2.85;79.52
76586;BME280;65251;51.022;13.736;2022-12-07T02:48:32;99027.00;;;2.86;79.35
76586;BME280;65251;51.022;13.736;2022-12-07T02:49:05;99018.44;;;2.84;79.61
76586;BME280;65251;51.022;13.736;2022-12-07T02:49:39;99019.94;;;2.87;79.43
76586;BME280;65251;51.022;13.736;2022-12-07T02:50:11;99025.03;;;2.88;79.40
76586;BME280;65251;51.022;13.736;2022-12-07T02:50:44;99025.22;;;2.87;79.41
76586;BME280;65251;51.022;13.736;2022-12-07T02:51:17;99022.59;;;2.95;79.38
76586;BME280;65251;51.022;13.736;2022-12-07T02:51:48;99020.78;;;2.95;79.20
76586;BME280;65251;51.022;13.736;2022-12-07T02:52:19;99011.91;;;2.96;79.13
76586;BME280;65251;51.022;13.736;2022-12-07T02:52:51;99023.25;;;2.97;79.00
76586;BME280;65251;51.022;13.736;2022-12-07T02:53:29;99016.34;;;2.96;78.82
76586;BME280;65251;51.022;13.736;2022-12-07T02:54:00;99012.41;;;2.92;79.27
76586;BME280;65251;51.022;13.736;2022-12-07T02:54:32;99020.13;;;2.93;78.79
76586;BME280;65251;51.022;13.736;2022-12-07T02:55:04;99015.53;;;2.95;78.59
76586;BME280;65251;51.022;13.736;2022-12-07T02:55:41;99017.19;;;2.96;78.70
76586;BME280;65251;51.022;13.736;2022-12-07T02:56:27;99019.81;;;2.96;78.38
76586;BME280;65251;51.022;13.736;2022-12-07T02:57:20;99014.38;;;2.90;79.01
76586;BME280;65251;51.022;13.736;2022-12-07T02:58:18;99010.91;;;2.89;79.12
76586;BME280;65251;51.022;13.736;2022-12-07T02:59:02;99009.41;;;2.87;78.82
76586;BME280;65251;51.022;13.736;2022-12-07T02:59:52;99014.03;;;2.85;78.95
76586;BME280;65251;51.022;13.736;2022-12-07T03:00:26;99016.50;;;2.86;79.04
76586;BME280;65251;51.022;13.736;2022-12-07T03:01:08;99014.69;;;2.87;78.77
76586;BME280;65251;51.022;13.736;2022-12-07T03:01:54;99016.16;;;2.89;78.98
76586;BME280;65251;51.022;13.736;2022-12-07T03:02:39;99007.78;;;2.94;78.61
76586;BME280;65251;51.022;13.736;2022-12-07T03:03:16;99013.06;;;2.94;78.27
76586;BME280;65251;51.022;13.736;2022-12-07T03:04:00;99014.53;;;2.96;78.31
76586;BME280;65251;51.022;13.736;2022-12-07T03:04:45;99014.38;;;2.98;77.98